Time;durP1;ratioP1;P1;durP2;ratioP2;P2;SDS_P1;SDS_P2;PMS_P1;PMS_P2;Temp;Humidity;BMP_temperature;BMP_pressure;BME280_temperature;BME280_humidity;BME280_pressure;Samples;Min_cycle;Max_cycle;Signal;HPM_P1;HPM_P2
2023/10/04 00:00:20;;;;;;;;;7.60;6.60;;;;;21.84;100.00;98944.50;6235286;28;97613;-65
2023/10/04 00:03:27;;;;;;;;;6.60;6.00;;;;;21.84;100.00;98957.41;6235035;28;96497;-64
2023/10/04 00:06:32;;;;;;;;;5.00;5.00;;;;;21.73;100.00;98975.91;6235420;28;96372;-65
2023/10/04 00:09:35;;;;;;;;;5.00;5.00;;;;;21.70;100.00;98954.53;6235912;28;96407;-65
2023/10/04 00:12:38;;;;;;;;;6.00;5.00;;;;;21.71;100.00;98947.13;6237077;28;97831;-65
2023/10/04 00:15:42;;;;;;;;;6.00;5.20;;;;;21.48;100.00;98943.28;6237932;27;96341;-65
2023/10/04 00:18:46;;;;;;;;;5.00;5.00;;;;;21.32;100.00;98953.59;6240845;28;96523;-65
2023/10/04 00:21:49;;;;;;;;;7.00;7.00;;;;;21.41;100.00;98959.25;6222788;28;96341;-65
2023/10/04 00:24:53;;;;;;;;;6.00;6.00;;;;;21.32;100.00;98956.34;6241277;28;96709;-65
2023/10/04 00:27:56;;;;;;;;;5.00;4.00;;;;;21.26;100.00;98989.59;6241568;28;96360;-66
2023/10/04 00:31:00;;;;;;;;;4.00;4.00;;;;;21.10;100.00;99003.41;6241429;28;96305;-66
2023/10/04 00:34:07;;;;;;;;;4.80;4.20;;;;;20.82;100.00;99019.81;6223019;28;96248;-66
2023/10/04 00:37:10;;;;;;;;;3.00;3.00;;;;;20.82;100.00;99014.34;6240390;28;96579;-65
2023/10/04 00:40:18;;;;;;;;;4.00;4.00;;;;;20.77;100.00;99015.16;6222764;28;97260;-65
2023/10/04 00:43:21;;;;;;;;;6.00;6.00;;;;;20.81;100.00;99029.13;6241752;28;97129;-66
2023/10/04 00:46:26;;;;;;;;;4.00;3.20;;;;;20.64;100.00;99046.75;6239821;28;96344;-63
2023/10/04 00:49:31;;;;;;;;;3.80;3.20;;;;;20.63;100.00;99049.78;6221464;28;96888;-65
2023/10/04 00:52:34;;;;;;;;;4.60;4.60;;;;;20.57;100.00;99051.75;6240101;27;96412;-65
2023/10/04 00:55:40;;;;;;;;;4.00;4.00;;;;;20.61;100.00;99061.03;6239980;28;97440;-66
2023/10/04 00:58:45;;;;;;;;;5.00;4.60;;;;;20.59;100.00;99065.97;6205279;28;96911;-66
2023/10/04 01:01:49;;;;;;;;;6.00;5.67;;;;;20.45;100.00;99081.38;6220906;28;96849;-65
2023/10/04 01:04:54;;;;;;;;;5.00;5.00;;;;;20.50;100.00;99078.63;6239179;28;96989;-65
2023/10/04 01:07:58;;;;;;;;;5.40;5.40;;;;;20.28;100.00;99078.94;6222500;28;96615;-66
2023/10/04 01:11:02;;;;;;;;;6.00;5.00;;;;;20.22;100.00;99102.00;6240375;28;96354;-65
2023/10/04 01:14:15;;;;;;;;;5.00;5.00;;;;;20.11;100.00;99105.03;6240653;28;96389;-65
2023/10/04 01:17:18;;;;;;;;;7.00;7.00;;;;;20.01;100.00;99116.00;6240819;28;96711;-66
2023/10/04 01:20:27;;;;;;;;;6.00;5.40;;;;;20.02;100.00;99114.91;6240682;28;96786;-65
2023/10/04 01:23:33;;;;;;;;;4.00;4.00;;;;;20.06;100.00;99116.81;6221323;28;96470;-65
2023/10/04 01:26:36;;;;;;;;;4.00;3.00;;;;;19.98;100.00;99122.88;6239423;27;96508;-65
2023/10/04 01:29:39;;;;;;;;;6.00;5.40;;;;;19.96;100.00;99130.53;6221813;28;96375;-65
2023/10/04 01:32:44;;;;;;;;;5.00;5.00;;;;;20.00;100.00;99131.59;6239431;28;96570;-65
2023/10/04 01:35:49;;;;;;;;;4.20;3.20;;;;;19.95;100.00;99130.78;6240173;28;96399;-66
2023/10/04 01:38:56;;;;;;;;;4.40;4.00;;;;;20.05;100.00;99142.53;6221029;28;96120;-65
2023/10/04 01:41:59;;;;;;;;;5.00;5.00;;;;;20.07;100.00;99154.03;6230811;28;96870;-65
2023/10/04 01:45:03;;;;;;;;;6.00;6.00;;;;;20.12;100.00;99161.41;6238468;28;96420;-66
2023/10/04 01:48:07;;;;;;;;;4.80;4.00;;;;;20.02;100.00;99165.00;6220057;28;96654;-65
2023/10/04 01:51:12;;;;;;;;;6.40;6.00;;;;;20.08;100.00;99179.50;6214105;28;96682;-65
2023/10/04 01:54:17;;;;;;;;;7.40;6.00;;;;;20.10;100.00;99175.38;6213235;28;97293;-62
2023/10/04 01:57:20;;;;;;;;;5.20;5.00;;;;;20.08;100.00;99193.19;6233091;27;96534;-66
2023/10/04 02:00:28;;;;;;;;;4.00;3.60;;;;;20.04;100.00;99189.34;6217167;28;96519;-63
2023/10/04 02:03:31;;;;;;;;;4.20;3.20;;;;;19.98;100.00;99196.75;6235678;28;96492;-66
2023/10/04 02:06:35;;;;;;;;;5.40;5.40;;;;;20.04;100.00;99206.59;6220022;28;96778;-65
2023/10/04 02:09:40;;;;;;;;;4.00;4.00;;;;;20.04;100.00;99211.22;6219860;28;96673;-66
2023/10/04 02:12:43;;;;;;;;;4.00;4.00;;;;;19.95;100.00;99207.41;6238880;28;96518;-66
2023/10/04 02:15:50;;;;;;;;;3.00;3.00;;;;;19.98;100.00;99212.34;6220549;28;96293;-66
2023/10/04 02:18:54;;;;;;;;;7.00;7.00;;;;;19.98;100.00;99218.66;6220832;28;96731;-66
2023/10/04 02:21:57;;;;;;;;;4.00;4.00;;;;;19.92;100.00;99224.38;6221790;27;96394;-65
2023/10/04 02:25:02;;;;;;;;;5.00;4.60;;;;;19.89;100.00;99223.00;6238310;27;96836;-66
2023/10/04 02:28:10;;;;;;;;;5.00;4.00;;;;;19.77;100.00;99227.94;6239203;28;96587;-65
2023/10/04 02:31:14;;;;;;;;;8.60;7.60;;;;;19.80;100.00;99252.84;6235901;28;96283;-65
2023/10/04 02:34:19;;;;;;;;;6.00;5.00;;;;;19.79;100.00;99259.41;6218466;28;98460;-66
2023/10/04 02:37:23;;;;;;;;;5.00;5.00;;;;;19.79;100.00;99267.59;6228723;28;96909;-65
2023/10/04 02:40:32;;;;;;;;;3.80;3.40;;;;;19.83;100.00;99267.91;6220218;28;96430;-63
2023/10/04 02:43:37;;;;;;;;;4.00;4.00;;;;;19.88;100.00;99270.66;6217837;28;97671;-65
2023/10/04 02:46:44;;;;;;;;;3.00;3.00;;;;;19.77;100.00;99277.19;6252986;27;96866;-65
2023/10/04 02:49:47;;;;;;;;;5.00;5.00;;;;;19.77;100.00;99288.97;6198554;28;98670;-65
2023/10/04 02:52:51;;;;;;;;;4.00;4.00;;;;;19.83;100.00;99307.03;6219102;28;97513;-65
2023/10/04 02:55:58;;;;;;;;;3.00;3.00;;;;;19.89;100.00;99300.44;6254865;27;96349;-65
2023/10/04 02:59:12;;;;;;;;;7.00;6.00;;;;;19.80;100.00;99310.28;6203261;28;98522;-65
2023/10/04 03:02:17;;;;;;;;;4.00;4.00;;;;;19.83;100.00;99312.50;6227807;28;96386;-64
2023/10/04 03:05:21;;;;;;;;;5.40;4.40;;;;;19.80;100.00;99304.81;6217184;28;96644;-65
2023/10/04 03:08:27;;;;;;;;;4.00;4.00;;;;;19.81;100.00;99319.31;6236189;28;96658;-65
2023/10/04 03:11:33;;;;;;;;;5.00;4.50;;;;;19.81;100.00;99320.16;6254631;27;96304;-65
2023/10/04 03:14:36;;;;;;;;;7.00;7.00;;;;;19.73;100.00;99320.69;6236339;28;97190;-65
2023/10/04 03:17:39;;;;;;;;;4.00;4.00;;;;;19.68;100.00;99314.38;6236370;28;97735;-65
2023/10/04 03:20:53;;;;;;;;;6.00;5.50;;;;;19.73;100.00;99311.66;6220256;28;96287;-65
2023/10/04 03:23:58;;;;;;;;;4.00;4.00;;;;;19.82;100.00;99323.72;6219778;28;96858;-65
2023/10/04 03:27:05;;;;;;;;;5.00;5.00;;;;;19.78;100.00;99331.66;6236473;28;96291;-65
2023/10/04 03:30:14;;;;;;;;;4.50;4.00;;;;;19.73;100.00;99337.13;6236378;28;96536;-65
2023/10/04 03:33:17;;;;;;;;;6.00;5.20;;;;;19.73;100.00;99345.31;6228700;27;96405;-65
2023/10/04 03:36:21;;;;;;;;;2.50;2.50;;;;;19.68;100.00;99336.28;6220487;28;96931;-65
2023/10/04 03:39:29;;;;;;;;;4.80;4.00;;;;;19.61;100.00;99331.03;6219742;28;96477;-65
2023/10/04 03:42:36;;;;;;;;;5.50;5.00;;;;;19.58;100.00;99337.06;6225306;27;96361;-65
2023/10/04 03:45:40;;;;;;;;;5.00;4.20;;;;;19.63;100.00;99339.00;6244939;27;96869;-65
2023/10/04 03:48:51;;;;;;;;;5.00;5.00;;;;;19.62;100.00;99348.28;6241405;27;97606;-64
2023/10/04 03:51:56;;;;;;;;;4.60;4.00;;;;;19.49;100.00;99354.28;6211339;28;97762;-64
2023/10/04 03:54:59;;;;;;;;;5.50;4.50;;;;;19.47;100.00;99362.72;6211387;28;97588;-63
2023/10/04 03:58:05;;;;;;;;;6.00;5.00;;;;;19.54;100.00;99365.22;6212431;28;98482;-64
2023/10/04 04:01:08;;;;;;;;;6.00;6.00;;;;;19.55;100.00;99375.88;6235779;27;97614;-64
2023/10/04 04:04:14;;;;;;;;;3.20;3.20;;;;;19.37;100.00;99384.53;6222535;28;96327;-64
2023/10/04 04:07:19;;;;;;;;;4.00;4.00;;;;;19.39;100.00;99390.56;6215115;28;96515;-64
2023/10/04 04:10:24;;;;;;;;;4.00;4.00;;;;;19.36;100.00;99404.75;6232954;27;96749;-64
2023/10/04 04:13:29;;;;;;;;;4.00;4.00;;;;;19.26;100.00;99396.50;6216169;28;96423;-65
2023/10/04 04:16:33;;;;;;;;;4.00;4.00;;;;;19.25;100.00;99406.66;6214345;28;96349;-65
2023/10/04 04:19:38;;;;;;;;;5.00;4.50;;;;;19.19;100.00;99404.13;6216966;28;96874;-64
2023/10/04 04:22:43;;;;;;;;;2.00;2.00;;;;;19.13;100.00;99394.25;6211597;27;98215;-67
2023/10/04 04:25:48;;;;;;;;;3.00;2.80;;;;;19.04;100.00;99402.97;6219628;27;97096;-64
2023/10/04 04:28:55;;;;;;;;;4.20;4.20;;;;;18.84;100.00;99412.94;6230066;27;96605;-65
2023/10/04 04:31:58;;;;;;;;;3.50;3.50;;;;;18.75;100.00;99419.97;6218721;28;99606;-65
2023/10/04 04:35:02;;;;;;;;;5.00;5.00;;;;;18.74;100.00;99416.41;6229467;27;96765;-66
2023/10/04 04:38:13;;;;;;;;;4.00;3.60;;;;;18.61;100.00;99416.88;6230412;27;97399;-65
2023/10/04 04:41:21;;;;;;;;;4.00;4.00;;;;;18.74;100.00;99426.50;6230727;27;96477;-66
2023/10/04 04:44:39;;;;;;;;;4.60;4.60;;;;;18.76;100.00;99433.38;6231501;28;96452;-65
2023/10/04 04:47:44;;;;;;;;;6.00;5.00;;;;;18.68;100.00;99439.31;6225926;27;96818;-65
2023/10/04 04:50:48;;;;;;;;;4.40;4.00;;;;;18.69;100.00;99449.16;6229346;27;96491;-65
2023/10/04 04:53:51;;;;;;;;;4.00;4.00;;;;;18.58;100.00;99450.13;6200381;28;96476;-65
2023/10/04 04:56:58;;;;;;;;;2.00;2.00;;;;;18.52;100.00;99454.69;6210317;27;96303;-65
2023/10/04 05:00:30;;;;;;;;;3.00;3.00;;;;;18.54;100.00;99465.41;6202521;28;96849;-64
2023/10/04 05:03:29;;;;;;;;;4.00;4.00;;;;;18.50;100.00;99477.91;6232529;28;96322;-65
2023/10/04 05:06:32;;;;;;;;;5.80;5.20;;;;;18.51;100.00;99471.38;6237182;28;97084;-64
2023/10/04 05:09:36;;;;;;;;;7.00;6.00;;;;;18.46;100.00;99479.50;6238369;28;96413;-64
2023/10/04 05:12:40;;;;;;;;;3.40;3.40;;;;;18.37;100.00;99470.97;6214535;27;98420;-64
2023/10/04 05:15:45;;;;;;;;;2.50;2.50;;;;;18.40;100.00;99481.34;6231009;28;97092;-64
2023/10/04 05:18:49;;;;;;;;;5.00;4.00;;;;;18.45;100.00;99488.78;6237792;28;96851;-65
2023/10/04 05:21:52;;;;;;;;;4.00;3.60;;;;;18.48;100.00;99490.97;6211652;28;97389;-65
2023/10/04 05:24:56;;;;;;;;;2.00;2.00;;;;;18.31;100.00;99498.47;6225103;27;96369;-65
2023/10/04 05:28:04;;;;;;;;;4.20;3.40;;;;;18.43;100.00;99496.38;6212055;28;98121;-63
2023/10/04 05:31:09;;;;;;;;;3.60;3.20;;;;;18.51;100.00;99509.59;6214001;28;96703;-65
2023/10/04 05:34:12;;;;;;;;;3.00;2.00;;;;;18.48;100.00;99519.09;6251274;27;96759;-64
2023/10/04 05:37:16;;;;;;;;;3.60;3.60;;;;;18.51;100.00;99528.69;6264947;27;96439;-65
2023/10/04 05:40:25;;;;;;;;;4.00;3.40;;;;;18.44;100.00;99539.81;6264770;27;96512;-65
2023/10/04 05:43:29;;;;;;;;;4.75;4.00;;;;;18.36;100.00;99534.00;6247932;27;96762;-65
2023/10/04 05:46:34;;;;;;;;;4.67;2.67;;;;;18.33;100.00;99540.78;6219252;28;96925;-64
2023/10/04 05:49:37;;;;;;;;;2.00;2.00;;;;;18.28;100.00;99537.16;6238778;28;96797;-65
2023/10/04 05:52:41;;;;;;;;;3.00;3.00;;;;;18.26;100.00;99539.34;6202155;27;98578;-64
2023/10/04 05:55:44;;;;;;;;;4.00;3.50;;;;;18.33;100.00;99557.16;6236906;28;96632;-64
2023/10/04 05:58:47;;;;;;;;;3.00;3.00;;;;;18.21;100.00;99558.38;6236964;28;96961;-65
2023/10/04 06:01:52;;;;;;;;;2.20;2.20;;;;;18.18;100.00;99568.72;6237044;28;96383;-65
2023/10/04 06:04:56;;;;;;;;;2.40;2.40;;;;;18.14;100.00;99583.13;6252911;27;97646;-65
2023/10/04 06:08:00;;;;;;;;;2.00;2.00;;;;;18.16;100.00;99581.81;6252893;27;96507;-63
2023/10/04 06:11:04;;;;;;;;;2.00;2.00;;;;;18.16;100.00;99581.81;6234361;28;97164;-65
2023/10/04 06:14:08;;;;;;;;;7.00;7.00;;;;;18.35;100.00;99593.22;6237082;28;96780;-65
2023/10/04 06:17:12;;;;;;;;;4.00;3.00;;;;;18.51;100.00;99607.91;6237961;28;96351;-65
2023/10/04 06:20:28;;;;;;;;;3.50;3.50;;;;;18.92;100.00;99623.66;6219775;28;96567;-65
2023/10/04 06:23:32;;;;;;;;;5.00;5.00;;;;;19.43;100.00;99629.59;6238104;27;96673;-65
2023/10/04 06:26:35;;;;;;;;;4.50;3.50;;;;;20.06;100.00;99633.31;6239488;28;96542;-65
2023/10/04 06:29:38;;;;;;;;;2.67;2.00;;;;;20.77;100.00;99631.72;6221189;28;96793;-65
2023/10/04 06:32:43;;;;;;;;;6.00;6.00;;;;;21.37;100.00;99633.75;6238574;28;96331;-65
2023/10/04 06:35:47;;;;;;;;;4.40;3.80;;;;;21.96;100.00;99644.16;6254592;27;96434;-66
2023/10/04 06:38:51;;;;;;;;;4.50;4.50;;;;;22.64;100.00;99639.81;6254403;27;96535;-66
2023/10/04 06:41:54;;;;;;;;;4.00;3.00;;;;;22.48;100.00;99642.91;6238901;28;96310;-65
2023/10/04 06:44:59;;;;;;;;;2.60;2.60;;;;;21.82;100.00;99645.81;6221066;28;96304;-65
2023/10/04 06:48:06;;;;;;;;;3.00;2.40;;;;;21.10;100.00;99647.72;6239063;28;96961;-65
2023/10/04 06:51:09;;;;;;;;;5.40;5.00;;;;;20.73;100.00;99655.28;6220761;28;96291;-65
2023/10/04 06:54:13;;;;;;;;;4.40;4.40;;;;;20.33;100.00;99656.75;6237912;27;96547;-66
2023/10/04 06:57:17;;;;;;;;;3.60;2.60;;;;;20.00;100.00;99661.75;6219462;28;98516;-65
2023/10/04 07:00:26;;;;;;;;;4.40;3.40;;;;;19.68;100.00;99665.38;6220683;28;96307;-65
2023/10/04 07:03:32;;;;;;;;;2.40;2.40;;;;;19.40;100.00;99674.66;6238843;28;96539;-66
2023/10/04 07:06:35;;;;;;;;;3.00;2.00;;;;;19.41;100.00;99672.75;6238307;28;96549;-66
2023/10/04 07:09:39;;;;;;;;;5.00;5.00;;;;;19.28;100.00;99681.41;6218199;28;96794;-65
2023/10/04 07:12:45;;;;;;;;;3.60;3.00;;;;;19.45;100.00;99682.13;6238546;28;96304;-66
2023/10/04 07:15:49;;;;;;;;;4.80;4.20;;;;;19.43;100.00;99676.06;6238806;28;96331;-66
2023/10/04 07:18:53;;;;;;;;;5.80;5.00;;;;;19.48;100.00;99684.34;6238118;28;98297;-66
2023/10/04 07:21:57;;;;;;;;;5.00;4.00;;;;;19.46;100.00;99683.78;6238304;28;96345;-66
2023/10/04 07:25:01;;;;;;;;;5.00;5.00;;;;;19.50;100.00;99673.97;6218300;28;97150;-65
2023/10/04 07:28:08;;;;;;;;;6.00;6.00;;;;;19.56;100.00;99683.88;6238064;28;97185;-66
2023/10/04 07:31:12;;;;;;;;;5.00;5.00;;;;;19.57;100.00;99674.59;6238173;28;96349;-66
2023/10/04 07:34:17;;;;;;;;;5.80;4.80;;;;;19.59;100.00;99688.00;6237237;28;96332;-66
2023/10/04 07:37:20;;;;;;;;;5.00;4.60;;;;;19.52;100.00;99684.66;6219702;28;96691;-66
2023/10/04 07:40:24;;;;;;;;;4.40;3.60;;;;;19.54;100.00;99697.00;6237889;28;97009;-66
2023/10/04 07:43:28;;;;;;;;;6.00;6.00;;;;;19.54;100.00;99698.91;6237380;28;96569;-67
2023/10/04 07:46:33;;;;;;;;;4.00;4.00;;;;;19.58;100.00;99689.09;6219887;28;96280;-66
2023/10/04 07:49:37;;;;;;;;;6.50;6.00;;;;;19.60;100.00;99700.56;6237504;28;96494;-66
2023/10/04 07:52:42;;;;;;;;;5.50;5.00;;;;;19.65;100.00;99692.41;6236067;27;96387;-66
2023/10/04 07:55:45;;;;;;;;;6.60;6.40;;;;;19.52;100.00;99682.75;6236915;28;97051;-65
2023/10/04 07:58:48;;;;;;;;;4.00;4.00;;;;;19.49;100.00;99676.97;6216975;28;98661;-66
2023/10/04 08:01:52;;;;;;;;;4.60;4.60;;;;;21.10;100.00;99677.03;6217144;28;96304;-65
2023/10/04 08:04:57;;;;;;;;;7.00;6.00;;;;;23.43;100.00;99674.56;6216223;28;96714;-65
2023/10/04 08:08:01;;;;;;;;;5.60;5.60;;;;;25.09;100.00;99670.31;6216788;28;96705;-66
2023/10/04 08:11:08;;;;;;;;;5.00;5.00;;;;;26.90;100.00;99666.25;6217735;28;97026;-65
2023/10/04 08:14:12;;;;;;;;;5.40;5.00;;;;;27.65;94.82;99667.59;6237242;28;96548;-66
2023/10/04 08:17:17;;;;;;;;;3.00;3.00;;;;;29.06;87.91;99677.53;6237221;28;96389;-66
2023/10/04 08:20:23;;;;;;;;;7.00;6.00;;;;;30.26;81.33;99665.50;6218460;28;96966;-67
2023/10/04 08:23:26;;;;;;;;;3.00;3.00;;;;;30.96;73.09;99680.72;6237009;28;96351;-67
2023/10/04 08:26:31;;;;;;;;;7.00;6.00;;;;;30.69;70.21;99675.66;6218550;28;96507;-67
2023/10/04 08:29:36;;;;;;;;;7.00;5.00;;;;;31.37;68.96;99680.75;6218813;28;96891;-66
2023/10/04 08:32:40;;;;;;;;;4.00;3.40;;;;;31.28;66.60;99680.00;6236496;28;97583;-66
2023/10/04 08:35:46;;;;;;;;;5.00;5.00;;;;;30.31;70.09;99684.78;6237127;27;96425;-67
2023/10/04 08:38:49;;;;;;;;;4.00;4.00;;;;;30.38;70.01;99692.63;6241313;28;96329;-67
2023/10/04 08:42:11;;;;;;;;;5.60;5.60;;;;;29.20;76.41;99688.50;6262339;27;96633;-66
2023/10/04 08:45:34;;;;;;;;;4.00;4.00;;;;;28.89;80.61;99685.81;6236747;28;96348;-66
2023/10/04 08:48:57;;;;;;;;;4.25;3.25;;;;;29.27;77.96;99681.28;6236485;28;96269;-66
2023/10/04 08:52:28;;;;;;;;;4.00;4.00;;;;;28.67;81.43;99678.41;6241259;28;96395;-67
2023/10/04 08:55:53;;;;;;;;;5.00;4.40;;;;;29.67;72.64;99690.31;6241456;28;96307;-67
2023/10/04 08:59:17;;;;;;;;;3.75;3.75;;;;;30.46;67.83;99686.22;6241178;28;97138;-67
2023/10/04 09:02:23;;;;;;;;;5.40;4.40;;;;;30.50;66.98;99681.63;6241061;28;96327;-67
2023/10/04 09:05:28;;;;;;;;;4.00;4.00;;;;;29.69;71.84;99687.19;6223216;28;97601;-67
2023/10/04 09:08:33;;;;;;;;;4.00;4.00;;;;;29.28;70.81;99685.72;6223104;27;97230;-66
2023/10/04 09:11:37;;;;;;;;;4.50;4.50;;;;;28.61;77.48;99682.47;6252884;27;96545;-66
2023/10/04 09:14:40;;;;;;;;;5.00;4.20;;;;;27.58;81.91;99687.41;6240293;28;96332;-66
2023/10/04 09:17:47;;;;;;;;;5.00;4.00;;;;;28.14;78.19;99681.28;6240230;28;96836;-66
2023/10/04 09:20:50;;;;;;;;;5.00;5.00;;;;;27.60;77.46;99681.56;6240167;28;96304;-66
2023/10/04 09:24:06;;;;;;;;;3.75;3.75;;;;;27.40;79.63;99680.91;6220614;28;97867;-67
2023/10/04 09:27:10;;;;;;;;;6.67;6.00;;;;;27.40;81.74;99680.06;6215956;28;96301;-67
2023/10/04 09:30:21;;;;;;;;;5.40;5.00;;;;;26.93;82.05;99684.19;6215185;28;96251;-67
2023/10/04 09:33:32;;;;;;;;;4.00;4.00;;;;;27.48;82.21;99682.91;6214661;28;96437;-66
2023/10/04 09:36:35;;;;;;;;;4.00;4.00;;;;;28.41;75.71;99689.41;6215468;28;96454;-66
2023/10/04 09:39:41;;;;;;;;;3.00;3.00;;;;;29.36;70.58;99683.31;6215264;28;96389;-66
2023/10/04 09:42:49;;;;;;;;;4.80;4.80;;;;;28.56;73.28;99681.78;6197479;28;96478;-66
2023/10/04 09:45:58;;;;;;;;;5.80;5.80;;;;;28.80;71.21;99677.47;6234655;28;96487;-66
2023/10/04 09:49:06;;;;;;;;;4.60;4.60;;;;;29.58;65.87;99672.00;6238696;28;96561;-66
2023/10/04 09:52:12;;;;;;;;;3.00;2.00;;;;;29.64;65.34;99671.53;6236100;28;96340;-66
2023/10/04 09:55:17;;;;;;;;;6.00;6.00;;;;;28.78;70.27;99671.41;6245232;27;96578;-65
2023/10/04 09:58:24;;;;;;;;;3.20;3.20;;;;;27.89;74.72;99668.06;6248302;27;96352;-65
2023/10/04 10:01:30;;;;;;;;;6.00;6.00;;;;;27.47;76.87;99667.41;6250347;27;96677;-65
2023/10/04 10:04:37;;;;;;;;;3.80;3.00;;;;;27.98;71.58;99663.38;6227047;28;96948;-66
2023/10/04 10:07:42;;;;;;;;;6.00;5.00;;;;;28.62;64.26;99661.09;6261947;27;96353;-66
2023/10/04 10:10:47;;;;;;;;;5.00;5.00;;;;;29.28;63.13;99646.00;6243678;27;96611;-66
2023/10/04 10:13:51;;;;;;;;;6.00;5.40;;;;;29.83;54.26;99648.91;6229155;27;96690;-66
2023/10/04 10:16:56;;;;;;;;;3.00;3.00;;;;;30.08;52.39;99645.28;6246073;27;96470;-67
2023/10/04 10:20:00;;;;;;;;;4.00;4.00;;;;;30.91;53.42;99651.09;6239344;28;97430;-67
2023/10/04 10:23:10;;;;;;;;;3.00;2.33;;;;;30.75;52.85;99644.50;6239322;28;96396;-66
2023/10/04 10:26:19;;;;;;;;;5.80;5.00;;;;;30.98;46.33;99653.38;6239613;28;96461;-66
2023/10/04 10:29:29;;;;;;;;;5.00;4.20;;;;;31.34;49.43;99650.78;6239272;28;96229;-66
2023/10/04 10:32:32;;;;;;;;;2.00;2.00;;;;;31.33;45.69;99651.94;6204203;28;96962;-66
2023/10/04 10:35:52;;;;;;;;;3.00;2.00;;;;;31.49;46.40;99635.41;6236448;28;96278;-66
2023/10/04 10:38:55;;;;;;;;;1.00;1.00;;;;;32.12;44.86;99641.69;6221563;28;96432;-66
2023/10/04 10:42:00;;;;;;;;;5.00;5.00;;;;;32.74;41.75;99638.63;6238579;28;96505;-67
2023/10/04 10:45:25;;;;;;;;;4.00;4.00;;;;;33.34;39.83;99646.06;6238876;28;96818;-66
2023/10/04 10:48:33;;;;;;;;;4.00;3.00;;;;;33.42;38.06;99647.91;6221165;28;96516;-66
2023/10/04 10:51:43;;;;;;;;;4.00;3.00;;;;;33.22;37.28;99653.69;6235368;28;96422;-66
2023/10/04 10:54:47;;;;;;;;;3.00;3.00;;;;;33.55;37.04;99654.25;6236217;28;96784;-66
2023/10/04 10:57:51;;;;;;;;;1.60;1.60;;;;;33.63;35.67;99661.66;6237863;28;96811;-66
2023/10/04 11:00:56;;;;;;;;;2.60;2.60;;;;;33.75;37.98;99656.06;6238823;28;98388;-66
2023/10/04 11:04:00;;;;;;;;;4.40;4.40;;;;;33.24;38.03;99663.31;6237677;28;97512;-66
2023/10/04 11:07:03;;;;;;;;;3.00;3.00;;;;;33.79;37.31;99653.34;6237533;28;97536;-66
2023/10/04 11:10:08;;;;;;;;;4.00;3.00;;;;;34.09;37.47;99640.59;6236835;28;97018;-66
2023/10/04 11:13:18;;;;;;;;;2.00;2.00;;;;;34.30;37.21;99649.56;6235398;28;97103;-67
2023/10/04 11:16:21;;;;;;;;;5.00;4.40;;;;;34.70;37.52;99646.56;6237497;28;96989;-67
2023/10/04 11:19:25;;;;;;;;;2.40;2.00;;;;;34.69;35.67;99641.34;6237271;28;96440;-67
2023/10/04 11:22:29;;;;;;;;;2.00;2.00;;;;;33.94;35.83;99638.59;6237119;28;96475;-66
2023/10/04 11:25:32;;;;;;;;;3.00;3.00;;;;;33.84;37.46;99633.50;6237320;28;96597;-66
2023/10/04 11:28:37;;;;;;;;;6.00;6.00;;;;;32.72;39.88;99626.16;6235655;27;96643;-65
2023/10/04 11:31:41;;;;;;;;;6.00;6.00;;;;;30.83;45.07;99628.91;6236419;28;96960;-65
2023/10/04 11:34:49;;;;;;;;;2.60;2.60;;;;;30.34;49.03;99603.47;6235520;28;96932;-64
2023/10/04 11:37:52;;;;;;;;;3.00;3.00;;;;;30.51;49.96;99625.63;6233750;28;97093;-64
2023/10/04 11:40:55;;;;;;;;;1.00;1.00;;;;;30.41;50.31;99633.50;6241930;27;96976;-65
2023/10/04 11:44:02;;;;;;;;;5.00;5.00;;;;;31.00;48.44;99631.53;6251572;27;96726;-65
2023/10/04 11:47:08;;;;;;;;;3.00;3.00;;;;;31.18;46.64;99635.84;6236504;28;97141;-64
2023/10/04 11:50:13;;;;;;;;;3.00;3.00;;;;;31.45;48.38;99619.72;6236256;28;96480;-65
2023/10/04 11:53:30;;;;;;;;;2.00;2.00;;;;;31.38;45.46;99628.63;6235046;28;96684;-65
2023/10/04 11:56:40;;;;;;;;;5.00;3.00;;;;;31.78;44.84;99626.13;6246163;27;97046;-64
2023/10/04 11:59:45;;;;;;;;;2.40;2.40;;;;;32.01;44.85;99634.94;6222413;28;98122;-64
2023/10/04 12:02:48;;;;;;;;;3.00;3.00;;;;;31.25;47.45;99638.09;6235457;28;97225;-64
2023/10/04 12:05:51;;;;;;;;;6.00;4.00;;;;;30.54;52.61;99636.09;6234197;28;96488;-64
2023/10/04 12:08:56;;;;;;;;;3.50;3.50;;;;;30.27;53.87;99630.97;6217454;28;96597;-64
2023/10/04 12:12:01;;;;;;;;;4.00;3.40;;;;;29.86;53.27;99633.56;6252628;27;97583;-64
2023/10/04 12:15:08;;;;;;;;;3.00;3.00;;;;;29.38;56.90;99633.78;6231599;27;96563;-64
2023/10/04 12:18:13;;;;;;;;;4.00;4.00;;;;;28.78;59.22;99635.34;6253158;27;96387;-64
2023/10/04 12:21:17;;;;;;;;;2.00;2.00;;;;;28.23;57.04;99623.91;6243490;27;97432;-64
2023/10/04 12:24:21;;;;;;;;;2.00;2.00;;;;;27.77;61.64;99629.84;6240705;27;98687;-63
2023/10/04 12:27:24;;;;;;;;;5.50;5.50;;;;;27.83;62.39;99619.44;6238000;28;96636;-64
2023/10/04 12:30:31;;;;;;;;;6.00;6.00;;;;;27.71;64.89;99617.25;6253051;27;96769;-64
2023/10/04 12:33:34;;;;;;;;;5.00;5.00;;;;;27.52;63.34;99630.50;6240465;28;96437;-63
2023/10/04 12:36:39;;;;;;;;;5.00;4.00;;;;;27.64;61.81;99624.38;6239810;28;96784;-64
2023/10/04 12:39:58;;;;;;;;;3.60;3.60;;;;;27.61;63.43;99623.09;6239071;28;97072;-63
2023/10/04 12:43:01;;;;;;;;;3.20;3.20;;;;;27.56;64.11;99617.69;6240018;28;96896;-63
2023/10/04 12:46:06;;;;;;;;;2.00;2.00;;;;;27.69;65.24;99608.47;6239816;28;96430;-63
2023/10/04 12:49:10;;;;;;;;;5.00;5.00;;;;;28.01;64.86;99621.16;6240009;28;96580;-63
2023/10/04 12:52:13;;;;;;;;;4.00;4.00;;;;;28.01;63.48;99602.59;6238104;28;97016;-63
2023/10/04 12:55:16;;;;;;;;;5.40;5.40;;;;;28.07;63.76;99608.00;6218453;28;97142;-65
2023/10/04 12:58:21;;;;;;;;;2.80;2.80;;;;;27.87;61.69;99595.50;6239556;27;98152;-63
2023/10/04 13:01:25;;;;;;;;;6.00;6.00;;;;;27.61;65.19;99598.16;6235285;28;96364;-63
2023/10/04 13:04:29;;;;;;;;;3.00;2.60;;;;;27.73;64.84;99594.78;6238063;27;97470;-63
2023/10/04 13:07:32;;;;;;;;;3.00;3.00;;;;;27.08;69.21;99603.56;6221056;28;97530;-63
2023/10/04 13:10:36;;;;;;;;;3.40;3.00;;;;;27.09;70.75;99600.50;6221043;28;96364;-63
2023/10/04 13:13:40;;;;;;;;;4.00;4.00;;;;;27.42;69.37;99605.78;6229481;28;96629;-63
2023/10/04 13:16:46;;;;;;;;;4.60;4.60;;;;;27.57;69.13;99600.72;6220932;28;97176;-64
2023/10/04 13:19:49;;;;;;;;;3.00;3.00;;;;;27.54;69.26;99606.06;6238978;28;97508;-63
2023/10/04 13:22:53;;;;;;;;;4.00;4.00;;;;;27.58;66.90;99607.91;6219717;28;97239;-63
2023/10/04 13:25:57;;;;;;;;;4.60;4.40;;;;;27.76;68.81;99603.25;6204244;28;98760;-64
2023/10/04 13:29:00;;;;;;;;;2.00;1.00;;;;;28.00;67.79;99603.72;6239762;28;96484;-64
2023/10/04 13:32:05;;;;;;;;;5.00;5.00;;;;;27.82;64.77;99590.09;6239283;28;96665;-64
2023/10/04 13:35:09;;;;;;;;;5.00;5.00;;;;;27.90;66.04;99592.09;6220212;28;96681;-64
2023/10/04 13:38:14;;;;;;;;;4.00;4.00;;;;;27.58;62.08;99596.81;6239260;28;96972;-64
2023/10/04 13:41:18;;;;;;;;;4.00;3.00;;;;;27.28;61.26;99605.84;6237390;28;96549;-64
2023/10/04 13:44:22;;;;;;;;;4.00;4.00;;;;;27.25;63.36;99595.44;6239879;28;96526;-65
2023/10/04 13:47:28;;;;;;;;;3.25;2.75;;;;;26.97;65.82;99600.25;6238812;28;96509;-64
2023/10/04 13:50:31;;;;;;;;;5.00;4.00;;;;;26.59;68.71;99594.16;6237569;28;97306;-64
2023/10/04 13:53:35;;;;;;;;;5.00;5.00;;;;;26.16;69.70;99595.59;6236219;28;96591;-64
2023/10/04 13:56:38;;;;;;;;;4.25;4.25;;;;;25.75;75.01;99595.56;6237595;28;96931;-63
2023/10/04 13:59:41;;;;;;;;;4.00;4.00;;;;;25.36;79.04;99590.44;6236658;28;96583;-63
2023/10/04 14:02:46;;;;;;;;;2.00;2.00;;;;;25.09;80.80;99576.50;6235327;28;96785;-63
2023/10/04 14:05:53;;;;;;;;;4.00;4.00;;;;;24.83;81.63;99576.03;6235976;28;97097;-63
2023/10/04 14:08:56;;;;;;;;;4.00;4.00;;;;;24.68;81.51;99571.56;6236697;27;96642;-63
2023/10/04 14:11:59;;;;;;;;;5.00;4.00;;;;;24.73;79.38;99577.00;6246113;27;96905;-64
2023/10/04 14:15:10;;;;;;;;;7.00;6.40;;;;;24.80;77.95;99565.63;6244725;27;96832;-64
2023/10/04 14:18:15;;;;;;;;;8.00;7.00;;;;;24.91;77.73;99569.91;6254521;27;96569;-64
2023/10/04 14:21:18;;;;;;;;;5.60;5.60;;;;;24.79;74.73;99558.47;6264504;27;96578;-64
2023/10/04 14:24:22;;;;;;;;;4.00;3.75;;;;;25.05;72.67;99572.72;6264269;27;96316;-64
2023/10/04 14:27:26;;;;;;;;;5.00;5.00;;;;;25.36;71.71;99573.88;6264659;27;96428;-64